Terminal Aerodrome Forecast
Issued by NWS Wichita, KS

Home | Current Version | Previous Version | Graphics & Text | Print | Product List | Glossary On
Versions: 1 2 3 4 5 6 7 8 9 10 11 12 13 14 15 16 17 18
000
FTUS43 KICT 230520
TAFICT
TAF
KICT 230520Z 2306/2406 VRB03KT 4SM BR SCT002 BKN100
      TEMPO 2306/2309 1SM BR BKN002
     FM230900 32012KT P6SM VCSH OVC100
     FM231400 34008KT P6SM SCT080
     FM231600 35014G22KT P6SM VCSH BKN040=

USA.gov is the U.S. government's official web portal to all federal, state and local government web resources and services.